Time;durP1;ratioP1;P1;durP2;ratioP2;P2;SDS_P1;SDS_P2;PMS_P1;PMS_P2;Temp;Humidity;BMP_temperature;BMP_pressure;BME280_temperature;BME280_humidity;BME280_pressure;Samples;Min_cycle;Max_cycle;Signal;HPM_P1;HPM_P2
2023/04/14 00:00:45;;;;;;;9.23;3.67;;;;;;;;;;4971582;28;20590;-79
2023/04/14 00:03:11;;;;;;;11.35;3.55;;;;;;;;;;4950310;28;20126;-79
2023/04/14 00:05:37;;;;;;;10.25;3.08;;;;;;;;;;4967574;28;20057;-79
2023/04/14 00:08:03;;;;;;;13.95;3.55;;;;;;;;;;4950400;28;20395;-79
2023/04/14 00:10:30;;;;;;;14.68;3.42;;;;;;;;;;4967148;28;20053;-78
2023/04/14 00:12:56;;;;;;;7.95;3.28;;;;;;;;;;4965983;28;20499;-79
2023/04/14 00:15:22;;;;;;;13.77;3.83;;;;;;;;;;4969974;28;20058;-79
2023/04/14 00:17:48;;;;;;;13.98;4.00;;;;;;;;;;4970972;28;20042;-79
2023/04/14 00:20:14;;;;;;;14.25;3.67;;;;;;;;;;4968416;28;20054;-79
2023/04/14 00:22:40;;;;;;;11.35;3.53;;;;;;;;;;4967399;28;20495;-78
2023/04/14 00:25:06;;;;;;;11.73;3.88;;;;;;;;;;4964655;28;20038;-79
2023/04/14 00:27:32;;;;;;;15.73;3.70;;;;;;;;;;4946594;28;20050;-79
2023/04/14 00:29:58;;;;;;;13.05;3.70;;;;;;;;;;4949835;28;20048;-79
2023/04/14 00:32:24;;;;;;;9.95;3.78;;;;;;;;;;4953220;28;20054;-78
2023/04/14 00:34:50;;;;;;;11.95;4.13;;;;;;;;;;4951678;28;20055;-79
2023/04/14 00:37:16;;;;;;;13.70;3.55;;;;;;;;;;4956856;28;20388;-78
2023/04/14 00:39:42;;;;;;;14.77;4.65;;;;;;;;;;4953708;28;20505;-79
2023/04/14 00:42:08;;;;;;;13.88;4.00;;;;;;;;;;4946785;28;21668;-78
2023/04/14 00:44:34;;;;;;;14.20;3.70;;;;;;;;;;4946645;28;20054;-79
2023/04/14 00:47:01;;;;;;;14.98;4.07;;;;;;;;;;4946858;28;20070;-79
2023/04/14 00:49:27;;;;;;;12.13;3.55;;;;;;;;;;4968076;28;20089;-78
2023/04/14 00:51:55;;;;;;;10.85;3.70;;;;;;;;;;4947912;28;20034;-78
2023/04/14 00:54:21;;;;;;;12.02;3.90;;;;;;;;;;4969599;28;20051;-79
2023/04/14 00:56:49;;;;;;;13.68;3.42;;;;;;;;;;4970312;28;20043;-78
2023/04/14 00:59:16;;;;;;;11.55;3.88;;;;;;;;;;4948651;28;20085;-78
2023/04/14 01:01:43;;;;;;;10.15;3.63;;;;;;;;;;4949359;28;20082;-78
2023/04/14 01:04:09;;;;;;;11.90;3.97;;;;;;;;;;4970400;28;20058;-78
2023/04/14 01:06:35;;;;;;;10.60;3.28;;;;;;;;;;4972745;28;20097;-79
2023/04/14 01:09:01;;;;;;;10.50;3.90;;;;;;;;;;4972503;28;20526;-78
2023/04/14 01:11:33;;;;;;;13.88;3.83;;;;;;;;;;4951353;28;20042;-78
2023/04/14 01:14:27;;;;;;;9.65;3.25;;;;;;;;;;4954521;28;20031;-76
2023/04/14 01:16:56;;;;;;;11.38;3.67;;;;;;;;;;4969769;28;20046;-76
2023/04/14 01:19:34;;;;;;;10.48;3.80;;;;;;;;;;4970653;28;20487;-76
2023/04/14 01:22:03;;;;;;;13.20;4.18;;;;;;;;;;4942181;28;20054;-76
2023/04/14 01:24:29;;;;;;;13.75;4.28;;;;;;;;;;4968893;28;20170;-76
2023/04/14 01:27:06;;;;;;;14.80;3.50;;;;;;;;;;4970960;28;20101;-76
2023/04/14 01:29:45;;;;;;;14.93;4.00;;;;;;;;;;4960701;28;20037;-76
2023/04/14 01:32:11;;;;;;;16.33;4.03;;;;;;;;;;4979353;28;20050;-76
2023/04/14 01:34:40;;;;;;;10.02;3.50;;;;;;;;;;4968446;28;20042;-76
2023/04/14 01:37:22;;;;;;;19.17;3.78;;;;;;;;;;4967630;28;20072;-76
2023/04/14 01:39:51;;;;;;;10.35;3.63;;;;;;;;;;4949295;28;20201;-76
2023/04/14 01:42:19;;;;;;;13.65;3.70;;;;;;;;;;4952572;28;20057;-76
2023/04/14 01:44:47;;;;;;;18.83;4.97;;;;;;;;;;4950872;28;20054;-76
2023/04/14 01:47:13;;;;;;;13.05;3.67;;;;;;;;;;4958492;28;20454;-76
2023/04/14 01:49:40;;;;;;;8.90;3.30;;;;;;;;;;4965492;28;20098;-76
2023/04/14 01:52:09;;;;;;;18.52;3.75;;;;;;;;;;4966629;28;20038;-76
2023/04/14 01:54:36;;;;;;;13.35;3.83;;;;;;;;;;4965042;28;20055;-76
2023/04/14 01:57:03;;;;;;;12.25;3.83;;;;;;;;;;4961470;28;20144;-76
2023/04/14 01:59:30;;;;;;;17.20;3.92;;;;;;;;;;4939608;29;20415;-76
2023/04/14 02:01:59;;;;;;;14.05;3.28;;;;;;;;;;4948130;28;20396;-76
2023/04/14 02:04:28;;;;;;;11.30;3.90;;;;;;;;;;4969163;28;20046;-76
2023/04/14 02:06:55;;;;;;;12.52;4.32;;;;;;;;;;4969330;28;20439;-76
2023/04/14 02:09:22;;;;;;;13.25;3.60;;;;;;;;;;4950384;28;20047;-76
2023/04/14 02:11:49;;;;;;;10.75;4.03;;;;;;;;;;4973833;28;20051;-76
2023/04/14 02:14:16;;;;;;;13.73;3.95;;;;;;;;;;4955225;28;20074;-77
2023/04/14 02:16:42;;;;;;;14.82;4.47;;;;;;;;;;4975704;28;20051;-76
2023/04/14 02:19:09;;;;;;;13.52;4.00;;;;;;;;;;4969505;28;20053;-76
2023/04/14 02:21:35;;;;;;;12.10;3.63;;;;;;;;;;4968807;28;20047;-76
2023/04/14 02:24:01;;;;;;;12.57;4.00;;;;;;;;;;4953507;28;20054;-76
2023/04/14 02:26:30;;;;;;;11.73;3.70;;;;;;;;;;4973028;28;20097;-76
2023/04/14 02:29:07;;;;;;;14.88;4.00;;;;;;;;;;4958086;28;20109;-76
2023/04/14 02:31:33;;;;;;;10.80;3.80;;;;;;;;;;4973116;28;20058;-77
2023/04/14 02:34:00;;;;;;;13.25;4.35;;;;;;;;;;4973287;28;20506;-76
2023/04/14 02:36:34;;;;;;;12.63;4.13;;;;;;;;;;4971081;28;20078;-77
2023/04/14 02:39:11;;;;;;;8.00;3.63;;;;;;;;;;4956532;28;20038;-76
2023/04/14 02:41:39;;;;;;;6.78;3.42;;;;;;;;;;4969717;28;20051;-77
2023/04/14 02:44:18;;;;;;;11.68;3.85;;;;;;;;;;4970022;28;20518;-76
2023/04/14 02:46:48;;;;;;;13.10;4.20;;;;;;;;;;4941722;28;20051;-77
2023/04/14 02:49:15;;;;;;;15.48;4.10;;;;;;;;;;4952943;28;20438;-77
2023/04/14 02:51:43;;;;;;;9.88;4.00;;;;;;;;;;4952820;28;20050;-78
2023/04/14 02:54:09;;;;;;;11.45;4.07;;;;;;;;;;4968259;28;20046;-77
2023/04/14 02:56:35;;;;;;;17.90;4.43;;;;;;;;;;4955079;28;20561;-77
2023/04/14 02:59:01;;;;;;;9.65;4.20;;;;;;;;;;4953667;28;20054;-77
2023/04/14 03:01:28;;;;;;;14.10;4.38;;;;;;;;;;4967161;28;20053;-77
2023/04/14 03:03:56;;;;;;;10.82;4.43;;;;;;;;;;4971678;28;20078;-77
2023/04/14 03:06:22;;;;;;;12.88;4.53;;;;;;;;;;4967006;28;20522;-78
2023/04/14 03:08:49;;;;;;;13.32;4.95;;;;;;;;;;4974078;28;20046;-77
2023/04/14 03:11:16;;;;;;;10.23;4.13;;;;;;;;;;4970470;28;20146;-77
2023/04/14 03:13:43;;;;;;;10.50;4.20;;;;;;;;;;4957071;28;20434;-77
2023/04/14 03:16:09;;;;;;;8.68;3.95;;;;;;;;;;4956327;28;20101;-77
2023/04/14 03:18:36;;;;;;;11.15;4.90;;;;;;;;;;4951652;28;20089;-77
2023/04/14 03:21:03;;;;;;;14.52;4.90;;;;;;;;;;4947436;28;20051;-77
2023/04/14 03:23:31;;;;;;;10.93;4.32;;;;;;;;;;4953234;28;20688;-77
2023/04/14 03:25:57;;;;;;;15.25;4.65;;;;;;;;;;4951977;28;20443;-77
2023/04/14 03:28:26;;;;;;;10.95;4.40;;;;;;;;;;4972152;28;20051;-77
2023/04/14 03:30:53;;;;;;;10.52;4.35;;;;;;;;;;4972384;28;20112;-77
2023/04/14 03:33:23;;;;;;;7.45;4.18;;;;;;;;;;4953893;28;20043;-77
2023/04/14 03:35:50;;;;;;;12.85;4.60;;;;;;;;;;4970004;28;20435;-77
2023/04/14 03:38:16;;;;;;;10.25;4.15;;;;;;;;;;4952593;28;20055;-77
2023/04/14 03:40:46;;;;;;;12.27;4.28;;;;;;;;;;4971046;28;20066;-77
2023/04/14 03:43:18;;;;;;;8.52;3.95;;;;;;;;;;4972774;28;20149;-77
2023/04/14 03:45:46;;;;;;;9.05;4.22;;;;;;;;;;4968716;28;20054;-77
2023/04/14 03:48:12;;;;;;;13.82;4.00;;;;;;;;;;4946678;28;20043;-77
2023/04/14 03:50:41;;;;;;;11.15;4.13;;;;;;;;;;4967659;28;20046;-77
2023/04/14 03:53:08;;;;;;;6.78;3.83;;;;;;;;;;4950385;28;20058;-77
2023/04/14 03:55:36;;;;;;;9.55;3.85;;;;;;;;;;4949070;28;20050;-77
2023/04/14 03:58:02;;;;;;;11.10;4.18;;;;;;;;;;4970426;28;20050;-77
2023/04/14 04:00:29;;;;;;;9.95;4.18;;;;;;;;;;4955285;28;20184;-77
2023/04/14 04:02:55;;;;;;;10.95;4.13;;;;;;;;;;4950987;28;20556;-77
2023/04/14 04:05:21;;;;;;;10.88;4.00;;;;;;;;;;4969049;28;20038;-77
2023/04/14 04:07:49;;;;;;;8.50;3.83;;;;;;;;;;4966878;28;20042;-77
2023/04/14 04:10:16;;;;;;;11.02;3.90;;;;;;;;;;4968128;28;20550;-77
2023/04/14 04:12:43;;;;;;;8.82;3.72;;;;;;;;;;4971726;28;20043;-77
2023/04/14 04:15:09;;;;;;;7.32;3.83;;;;;;;;;;4972613;28;20042;-77
2023/04/14 04:17:36;;;;;;;9.43;4.05;;;;;;;;;;4972577;28;20096;-77
2023/04/14 04:20:06;;;;;;;9.25;4.15;;;;;;;;;;4969244;28;20051;-77
2023/04/14 04:22:33;;;;;;;10.32;4.18;;;;;;;;;;4952614;28;20051;-77
2023/04/14 04:24:59;;;;;;;10.88;4.00;;;;;;;;;;4972861;28;20049;-77
2023/04/14 04:27:29;;;;;;;10.80;4.55;;;;;;;;;;4970376;28;20057;-77
2023/04/14 04:29:55;;;;;;;7.53;3.90;;;;;;;;;;4968376;28;20063;-77
2023/04/14 04:32:21;;;;;;;9.32;4.25;;;;;;;;;;4950258;28;20043;-78
2023/04/14 04:34:50;;;;;;;8.88;4.28;;;;;;;;;;4972803;28;20051;-77
2023/04/14 04:37:18;;;;;;;7.50;4.10;;;;;;;;;;4971676;28;20038;-77
2023/04/14 04:39:44;;;;;;;10.73;4.57;;;;;;;;;;4948239;28;20056;-77
2023/04/14 04:42:10;;;;;;;11.02;4.05;;;;;;;;;;4954150;28;20495;-77
2023/04/14 04:44:36;;;;;;;11.70;4.38;;;;;;;;;;4945396;28;20502;-77
2023/04/14 04:47:02;;;;;;;11.30;4.50;;;;;;;;;;4966800;28;20047;-77
2023/04/14 04:49:29;;;;;;;9.15;3.92;;;;;;;;;;4964618;28;20141;-77
2023/04/14 04:51:58;;;;;;;9.75;4.45;;;;;;;;;;4960218;28;20053;-77
2023/04/14 04:54:25;;;;;;;10.40;4.53;;;;;;;;;;4947536;28;20051;-77
2023/04/14 04:56:52;;;;;;;9.75;4.28;;;;;;;;;;4969608;28;20035;-77
2023/04/14 04:59:18;;;;;;;11.05;4.97;;;;;;;;;;4953540;28;20512;-77
2023/04/14 05:01:47;;;;;;;10.27;3.65;;;;;;;;;;4965915;28;20125;-77
2023/04/14 05:04:13;;;;;;;10.98;4.30;;;;;;;;;;4970370;28;20497;-78
2023/04/14 05:06:39;;;;;;;8.32;4.50;;;;;;;;;;4971509;28;20049;-77
2023/04/14 05:09:05;;;;;;;9.23;4.78;;;;;;;;;;4966931;28;20042;-77
2023/04/14 05:11:32;;;;;;;10.70;5.10;;;;;;;;;;4943723;28;20137;-78
2023/04/14 05:13:58;;;;;;;10.93;5.13;;;;;;;;;;4948962;28;20065;-78
2023/04/14 05:16:24;;;;;;;10.90;4.90;;;;;;;;;;4953047;28;20140;-77
2023/04/14 05:18:51;;;;;;;11.25;4.80;;;;;;;;;;4945848;28;20102;-77
2023/04/14 05:21:17;;;;;;;12.75;4.90;;;;;;;;;;4966846;28;20050;-77
2023/04/14 05:23:44;;;;;;;10.52;4.95;;;;;;;;;;4959730;28;20091;-78
2023/04/14 05:26:13;;;;;;;9.65;4.68;;;;;;;;;;4951294;28;20407;-77
2023/04/14 05:28:41;;;;;;;9.20;4.53;;;;;;;;;;4953753;28;20182;-77
2023/04/14 05:31:07;;;;;;;9.75;4.78;;;;;;;;;;4967666;28;20035;-77
2023/04/14 05:33:33;;;;;;;16.10;5.72;;;;;;;;;;4954711;28;20073;-77
2023/04/14 05:36:00;;;;;;;10.63;4.78;;;;;;;;;;4949015;28;20038;-78
2023/04/14 05:38:26;;;;;;;11.23;5.35;;;;;;;;;;4965223;28;20050;-79
2023/04/14 05:40:52;;;;;;;12.30;5.28;;;;;;;;;;4946267;28;20502;-79
2023/04/14 05:43:19;;;;;;;10.55;5.40;;;;;;;;;;4947221;28;20062;-79
2023/04/14 05:45:46;;;;;;;9.88;5.22;;;;;;;;;;4954466;28;20051;-77
2023/04/14 05:48:13;;;;;;;11.48;5.38;;;;;;;;;;4970475;28;20506;-78
2023/04/14 05:50:39;;;;;;;10.60;5.35;;;;;;;;;;4966028;28;20063;-78
2023/04/14 05:53:06;;;;;;;10.40;5.28;;;;;;;;;;4970950;28;20391;-79
2023/04/14 05:55:32;;;;;;;11.95;5.38;;;;;;;;;;4964528;28;20779;-77
2023/04/14 05:57:58;;;;;;;11.45;5.22;;;;;;;;;;4969713;28;20038;-77
2023/04/14 06:00:24;;;;;;;9.93;5.05;;;;;;;;;;4968443;28;20051;-77
2023/04/14 06:02:51;;;;;;;10.93;5.32;;;;;;;;;;4956231;28;20054;-77
2023/04/14 06:05:17;;;;;;;13.13;5.20;;;;;;;;;;4972826;28;20490;-77
2023/04/14 06:07:43;;;;;;;10.00;5.43;;;;;;;;;;4949525;28;20038;-77
2023/04/14 06:10:09;;;;;;;13.23;5.30;;;;;;;;;;4956965;28;20063;-77
2023/04/14 06:12:39;;;;;;;12.23;5.95;;;;;;;;;;4958185;28;20089;-77
2023/04/14 06:15:05;;;;;;;12.38;5.88;;;;;;;;;;4955445;28;20062;-78
2023/04/14 06:17:32;;;;;;;12.10;5.70;;;;;;;;;;4954964;28;20046;-77
2023/04/14 06:19:58;;;;;;;11.05;5.50;;;;;;;;;;4983390;28;20093;-77
2023/04/14 06:22:28;;;;;;;12.18;5.57;;;;;;;;;;4952498;28;20054;-77
2023/04/14 06:24:56;;;;;;;11.20;5.75;;;;;;;;;;4958732;28;20104;-78
2023/04/14 06:27:23;;;;;;;9.00;5.38;;;;;;;;;;4957728;28;20035;-78
2023/04/14 06:29:50;;;;;;;10.30;5.32;;;;;;;;;;4957529;28;20046;-77
2023/04/14 06:32:16;;;;;;;14.20;5.40;;;;;;;;;;4974155;28;20050;-77
2023/04/14 06:34:42;;;;;;;12.15;6.10;;;;;;;;;;4957903;28;20062;-77
2023/04/14 06:37:08;;;;;;;11.75;5.50;;;;;;;;;;4975111;28;20134;-77
2023/04/14 06:39:34;;;;;;;10.57;5.60;;;;;;;;;;4958886;28;20050;-77
2023/04/14 06:42:01;;;;;;;13.77;5.75;;;;;;;;;;4957238;28;20042;-78
2023/04/14 06:44:27;;;;;;;13.15;5.45;;;;;;;;;;4974034;28;20520;-77
2023/04/14 06:46:53;;;;;;;10.75;5.50;;;;;;;;;;4953001;28;20045;-77
2023/04/14 06:49:20;;;;;;;11.93;5.55;;;;;;;;;;4954932;28;20047;-77
2023/04/14 06:51:46;;;;;;;9.65;5.72;;;;;;;;;;4974022;28;20147;-77
2023/04/14 06:54:12;;;;;;;9.07;5.53;;;;;;;;;;4971913;28;20129;-76
2023/04/14 06:56:38;;;;;;;12.05;6.10;;;;;;;;;;4973908;28;20088;-76
2023/04/14 06:59:04;;;;;;;11.57;5.88;;;;;;;;;;4972903;28;20074;-76
2023/04/14 07:01:30;;;;;;;8.90;5.53;;;;;;;;;;4971623;28;20536;-76
2023/04/14 07:03:56;;;;;;;13.63;5.93;;;;;;;;;;4980111;28;20049;-76
2023/04/14 07:06:23;;;;;;;14.23;5.65;;;;;;;;;;4978015;28;20053;-76
2023/04/14 07:08:49;;;;;;;11.15;6.25;;;;;;;;;;4966296;28;20084;-76
2023/04/14 07:11:15;;;;;;;14.68;5.72;;;;;;;;;;4975762;28;20077;-76
2023/04/14 07:13:41;;;;;;;15.15;6.10;;;;;;;;;;4974153;28;20039;-76
2023/04/14 07:16:07;;;;;;;14.10;6.28;;;;;;;;;;4957511;28;20051;-76
2023/04/14 07:18:33;;;;;;;9.57;5.43;;;;;;;;;;4954217;28;20110;-76
2023/04/14 07:21:00;;;;;;;14.85;6.78;;;;;;;;;;4975403;28;20057;-76
2023/04/14 07:23:26;;;;;;;12.65;6.15;;;;;;;;;;4972633;28;20039;-76
2023/04/14 07:25:53;;;;;;;13.95;6.25;;;;;;;;;;4975086;28;20043;-76
2023/04/14 07:28:20;;;;;;;11.82;6.72;;;;;;;;;;4955693;28;20070;-76
2023/04/14 07:30:47;;;;;;;12.07;6.43;;;;;;;;;;4970631;28;20066;-76
2023/04/14 07:33:17;;;;;;;13.23;6.60;;;;;;;;;;4973349;28;20074;-76
2023/04/14 07:35:43;;;;;;;13.30;5.78;;;;;;;;;;4970529;28;20051;-76
2023/04/14 07:38:09;;;;;;;13.95;6.38;;;;;;;;;;4952725;28;20070;-76
2023/04/14 07:40:35;;;;;;;13.63;5.95;;;;;;;;;;4973236;28;20116;-76
2023/04/14 07:43:02;;;;;;;10.43;4.72;;;;;;;;;;4956612;28;20118;-76
2023/04/14 07:45:28;;;;;;;9.15;4.82;;;;;;;;;;4971982;28;20384;-76
2023/04/14 07:47:54;;;;;;;13.25;5.35;;;;;;;;;;4953848;28;20043;-79
2023/04/14 07:50:20;;;;;;;10.68;4.80;;;;;;;;;;4967747;28;20050;-78
2023/04/14 07:52:46;;;;;;;13.32;5.50;;;;;;;;;;4954491;28;20051;-79
2023/04/14 07:55:12;;;;;;;13.77;4.75;;;;;;;;;;4955867;28;20059;-79
2023/04/14 07:57:40;;;;;;;10.50;4.82;;;;;;;;;;4971706;28;20130;-78
2023/04/14 08:00:08;;;;;;;8.32;4.30;;;;;;;;;;4972430;28;20053;-79
2023/04/14 08:02:35;;;;;;;12.40;4.93;;;;;;;;;;4956364;28;21567;-79
2023/04/14 08:05:01;;;;;;;12.10;5.40;;;;;;;;;;4970174;28;20125;-78
2023/04/14 08:07:27;;;;;;;12.25;4.80;;;;;;;;;;4973376;28;20070;-78
2023/04/14 08:09:53;;;;;;;11.82;4.65;;;;;;;;;;4971623;28;20474;-79
2023/04/14 08:12:19;;;;;;;13.23;4.53;;;;;;;;;;4954912;28;20046;-78
2023/04/14 08:14:48;;;;;;;11.73;4.38;;;;;;;;;;4973864;28;20051;-78
2023/04/14 08:17:14;;;;;;;9.43;3.97;;;;;;;;;;4973351;28;20047;-78
2023/04/14 08:19:40;;;;;;;13.48;4.15;;;;;;;;;;4954287;28;20080;-80
2023/04/14 08:22:07;;;;;;;11.02;3.95;;;;;;;;;;4955498;28;20047;-77
2023/04/14 08:24:33;;;;;;;15.50;3.90;;;;;;;;;;4973359;28;20038;-76
2023/04/14 08:27:01;;;;;;;10.63;4.30;;;;;;;;;;4958748;28;20087;-76
2023/04/14 08:29:27;;;;;;;11.00;3.92;;;;;;;;;;4954664;28;20129;-77
2023/04/14 08:31:53;;;;;;;11.27;3.85;;;;;;;;;;4956505;28;20353;-77
2023/04/14 08:34:19;;;;;;;8.88;3.70;;;;;;;;;;4955181;28;20046;-77
2023/04/14 08:36:46;;;;;;;8.70;3.78;;;;;;;;;;4953998;28;20489;-76
2023/04/14 08:39:12;;;;;;;9.25;3.58;;;;;;;;;;4950320;28;20046;-77
2023/04/14 08:41:39;;;;;;;8.88;3.58;;;;;;;;;;4953317;28;20086;-76
2023/04/14 08:44:05;;;;;;;13.27;4.78;;;;;;;;;;4954511;28;20059;-77
2023/04/14 08:46:31;;;;;;;15.07;4.80;;;;;;;;;;4968373;28;20459;-78
2023/04/14 08:49:03;;;;;;;11.52;4.65;;;;;;;;;;4954560;28;20396;-77
2023/04/14 08:51:30;;;;;;;9.43;4.18;;;;;;;;;;4955227;28;20050;-77
2023/04/14 08:53:57;;;;;;;14.63;5.65;;;;;;;;;;4953825;28;20069;-78
2023/04/14 08:56:24;;;;;;;14.73;5.25;;;;;;;;;;4971116;28;20519;-78
2023/04/14 08:58:50;;;;;;;14.45;4.65;;;;;;;;;;4970236;28;20054;-78
2023/04/14 09:01:16;;;;;;;11.10;4.10;;;;;;;;;;4954123;28;20062;-78
2023/04/14 09:03:43;;;;;;;9.82;4.10;;;;;;;;;;4971088;28;20051;-78
2023/04/14 09:06:09;;;;;;;9.05;4.13;;;;;;;;;;4952843;28;20078;-77
2023/04/14 09:08:35;;;;;;;8.40;3.90;;;;;;;;;;4968534;28;20047;-78
2023/04/14 09:11:02;;;;;;;9.10;3.08;;;;;;;;;;4954404;28;20043;-78
2023/04/14 09:13:29;;;;;;;13.18;3.72;;;;;;;;;;4953632;28;20059;-78
2023/04/14 09:15:56;;;;;;;12.27;4.03;;;;;;;;;;4967319;28;20039;-78
2023/04/14 09:18:22;;;;;;;7.93;2.85;;;;;;;;;;4971018;28;20046;-78
2023/04/14 09:20:48;;;;;;;6.30;2.75;;;;;;;;;;4951720;28;20089;-80
2023/04/14 09:23:14;;;;;;;8.48;2.78;;;;;;;;;;4949994;28;20063;-79
2023/04/14 09:25:41;;;;;;;9.18;2.70;;;;;;;;;;4971517;28;20047;-79
2023/04/14 09:28:07;;;;;;;5.47;2.45;;;;;;;;;;4948330;28;20046;-78
2023/04/14 09:30:33;;;;;;;7.10;2.53;;;;;;;;;;4950855;28;20054;-79
2023/04/14 09:33:17;;;;;;;7.60;2.67;;;;;;;;;;4954339;28;20042;-79
2023/04/14 09:35:48;;;;;;;9.00;2.53;;;;;;;;;;4949970;28;20074;-78
2023/04/14 09:38:14;;;;;;;5.47;2.67;;;;;;;;;;4970681;28;20057;-78
2023/04/14 09:40:42;;;;;;;7.25;2.53;;;;;;;;;;4950441;28;20192;-78
2023/04/14 09:43:22;;;;;;;6.45;2.70;;;;;;;;;;4971038;28;20117;-78
2023/04/14 09:45:48;;;;;;;5.03;2.65;;;;;;;;;;4951196;28;20529;-79
2023/04/14 09:48:15;;;;;;;8.82;3.25;;;;;;;;;;4970179;28;20303;-78
2023/04/14 09:51:00;;;;;;;4.05;2.13;;;;;;;;;;4950232;28;20063;-79
2023/04/14 09:53:26;;;;;;;8.02;2.55;;;;;;;;;;4968599;28;20057;-79
2023/04/14 09:55:52;;;;;;;5.40;2.45;;;;;;;;;;4947595;28;20122;-79
2023/04/14 09:58:20;;;;;;;7.78;2.97;;;;;;;;;;4952516;28;20054;-79
2023/04/14 10:00:46;;;;;;;5.25;2.30;;;;;;;;;;4949264;28;20051;-79
2023/04/14 10:03:12;;;;;;;8.00;2.80;;;;;;;;;;4946884;28;20042;-78
2023/04/14 10:05:38;;;;;;;4.43;2.35;;;;;;;;;;4946001;28;20483;-78
2023/04/14 10:08:05;;;;;;;7.50;2.22;;;;;;;;;;4950926;28;20170;-78
2023/04/14 10:10:31;;;;;;;8.35;2.70;;;;;;;;;;4970986;28;20134;-78
2023/04/14 10:12:59;;;;;;;4.03;2.10;;;;;;;;;;4945306;28;20491;-78
2023/04/14 10:15:26;;;;;;;5.80;2.40;;;;;;;;;;4944066;28;20093;-80
2023/04/14 10:17:52;;;;;;;7.55;2.42;;;;;;;;;;4970331;28;20066;-78
2023/04/14 10:20:18;;;;;;;2.80;2.13;;;;;;;;;;4936464;28;20142;-77
2023/04/14 10:22:44;;;;;;;4.28;2.10;;;;;;;;;;4953581;28;20386;-79
2023/04/14 10:25:10;;;;;;;2.70;1.92;;;;;;;;;;4953100;28;20138;-78
2023/04/14 10:27:36;;;;;;;3.35;2.03;;;;;;;;;;4953732;28;20047;-78
2023/04/14 10:30:04;;;;;;;5.95;2.17;;;;;;;;;;4967251;28;20109;-80
2023/04/14 10:32:32;;;;;;;3.75;2.10;;;;;;;;;;4970560;28;20053;-82
2023/04/14 10:35:06;;;;;;;8.50;2.20;;;;;;;;;;4948408;29;20051;-81
2023/04/14 10:37:32;;;;;;;6.90;2.50;;;;;;;;;;4944430;28;20054;-80
2023/04/14 10:39:59;;;;;;;6.15;2.20;;;;;;;;;;4947424;28;20047;-80
2023/04/14 10:42:25;;;;;;;6.50;2.25;;;;;;;;;;4955013;28;20047;-81
2023/04/14 10:45:05;;;;;;;5.30;2.05;;;;;;;;;;4952115;28;20043;-82
2023/04/14 10:47:34;;;;;;;4.82;2.10;;;;;;;;;;4959843;28;20047;-81
2023/04/14 10:50:09;;;;;;;3.63;2.25;;;;;;;;;;4973396;28;20053;-82
2023/04/14 10:52:36;;;;;;;4.25;2.10;;;;;;;;;;4968857;28;20097;-82
2023/04/14 10:55:06;;;;;;;7.28;2.30;;;;;;;;;;4963403;28;20665;-82
2023/04/14 10:57:39;;;;;;;3.58;2.20;;;;;;;;;;4957026;28;20047;-81
2023/04/14 11:00:18;;;;;;;5.28;2.17;;;;;;;;;;4970444;28;20051;-82
2023/04/14 11:02:53;;;;;;;5.55;2.10;;;;;;;;;;4952458;28;20065;-78
2023/04/14 11:05:20;;;;;;;4.00;1.98;;;;;;;;;;4973493;28;20129;-78
2023/04/14 11:07:48;;;;;;;6.10;2.17;;;;;;;;;;4973615;28;20518;-78
2023/04/14 11:10:16;;;;;;;4.50;2.53;;;;;;;;;;4973673;28;20078;-78
2023/04/14 11:12:43;;;;;;;6.53;2.58;;;;;;;;;;4958872;28;20054;-79
2023/04/14 11:15:09;;;;;;;4.20;2.08;;;;;;;;;;4972693;28;20138;-78
2023/04/14 11:17:39;;;;;;;4.47;2.10;;;;;;;;;;4956175;28;20046;-79
2023/04/14 11:20:17;;;;;;;6.10;2.38;;;;;;;;;;4970426;28;20086;-80
2023/04/14 11:22:44;;;;;;;7.03;2.35;;;;;;;;;;4972620;28;20043;-78
2023/04/14 11:25:20;;;;;;;8.13;2.55;;;;;;;;;;4956817;28;20043;-79
2023/04/14 11:27:50;;;;;;;4.80;2.30;;;;;;;;;;4953955;28;20039;-79
2023/04/14 11:30:20;;;;;;;6.15;2.80;;;;;;;;;;4972254;28;20494;-79
2023/04/14 11:32:50;;;;;;;4.75;3.00;;;;;;;;;;4955269;29;20353;-79
2023/04/14 11:35:20;;;;;;;5.60;2.50;;;;;;;;;;4944781;28;20517;-79
2023/04/14 11:37:46;;;;;;;6.32;2.70;;;;;;;;;;4973844;28;20101;-79
2023/04/14 11:40:13;;;;;;;7.80;2.42;;;;;;;;;;4955166;28;20528;-78
2023/04/14 11:42:46;;;;;;;4.93;2.10;;;;;;;;;;4947522;28;20491;-80
2023/04/14 11:45:15;;;;;;;6.45;2.85;;;;;;;;;;4948698;28;20054;-79
2023/04/14 11:48:09;;;;;;;4.28;2.42;;;;;;;;;;4957062;28;20395;-79
2023/04/14 11:50:38;;;;;;;6.05;2.40;;;;;;;;;;4956501;28;20065;-79
2023/04/14 11:53:07;;;;;;;4.70;2.33;;;;;;;;;;4955015;29;20530;-79
2023/04/14 11:55:34;;;;;;;5.80;2.25;;;;;;;;;;4943977;28;20519;-78
2023/04/14 11:58:01;;;;;;;6.53;2.38;;;;;;;;;;4972260;28;20415;-79
2023/04/14 12:00:27;;;;;;;6.13;2.30;;;;;;;;;;4972146;28;20054;-79
2023/04/14 12:02:53;;;;;;;4.95;2.40;;;;;;;;;;4953825;29;20588;-79
2023/04/14 12:05:24;;;;;;;6.57;2.63;;;;;;;;;;4943287;28;20047;-79
2023/04/14 12:07:50;;;;;;;6.13;2.45;;;;;;;;;;4955683;28;20051;-79
2023/04/14 12:10:17;;;;;;;3.58;2.60;;;;;;;;;;4955337;28;20495;-79
2023/04/14 12:12:43;;;;;;;4.03;2.47;;;;;;;;;;4955144;28;20363;-79
2023/04/14 12:15:09;;;;;;;4.85;2.63;;;;;;;;;;4972396;28;20478;-79
2023/04/14 12:17:36;;;;;;;5.55;2.30;;;;;;;;;;4953115;28;20127;-79
2023/04/14 12:20:02;;;;;;;3.35;2.05;;;;;;;;;;4952994;28;20054;-78
2023/04/14 12:22:29;;;;;;;5.43;2.50;;;;;;;;;;4970918;28;20053;-79
2023/04/14 12:24:56;;;;;;;4.25;1.92;;;;;;;;;;4956781;28;20109;-79
2023/04/14 12:27:23;;;;;;;3.88;1.83;;;;;;;;;;4954378;28;20050;-79
2023/04/14 12:29:49;;;;;;;4.65;1.63;;;;;;;;;;4972936;28;20082;-79
2023/04/14 12:32:20;;;;;;;6.32;2.08;;;;;;;;;;4954339;28;20054;-79
2023/04/14 12:34:57;;;;;;;2.05;1.80;;;;;;;;;;4971449;28;20101;-79
2023/04/14 12:37:27;;;;;;;3.42;2.30;;;;;;;;;;4969735;28;20487;-79
2023/04/14 12:39:59;;;;;;;3.95;2.28;;;;;;;;;;4955108;28;20046;-78
2023/04/14 12:42:29;;;;;;;5.05;2.67;;;;;;;;;;4955925;28;20063;-79
2023/04/14 12:45:00;;;;;;;7.35;2.20;;;;;;;;;;4948947;29;20066;-78
2023/04/14 12:47:30;;;;;;;4.05;1.90;;;;;;;;;;4951817;28;20110;-79
2023/04/14 12:49:57;;;;;;;4.15;2.15;;;;;;;;;;4956513;28;20463;-79
2023/04/14 12:52:33;;;;;;;4.18;2.53;;;;;;;;;;4953206;28;20455;-79
2023/04/14 12:54:59;;;;;;;8.73;2.50;;;;;;;;;;4971007;28;20058;-79
2023/04/14 12:57:26;;;;;;;6.13;2.38;;;;;;;;;;4954089;28;20050;-79
2023/04/14 12:59:52;;;;;;;5.03;2.33;;;;;;;;;;4973659;28;20050;-79
2023/04/14 13:02:18;;;;;;;6.30;2.30;;;;;;;;;;4954309;28;20213;-79
2023/04/14 13:04:44;;;;;;;7.25;2.42;;;;;;;;;;4972336;28;20057;-79
2023/04/14 13:07:10;;;;;;;5.40;2.45;;;;;;;;;;4969826;28;20499;-77
2023/04/14 13:09:36;;;;;;;4.07;2.20;;;;;;;;;;4953534;28;20073;-79
2023/04/14 13:12:02;;;;;;;6.35;2.42;;;;;;;;;;4953663;28;20043;-79
2023/04/14 13:14:28;;;;;;;5.22;2.38;;;;;;;;;;4973123;28;20093;-79
2023/04/14 13:16:54;;;;;;;8.45;2.55;;;;;;;;;;4972514;28;20070;-79
2023/04/14 13:19:20;;;;;;;4.65;2.40;;;;;;;;;;4956467;28;22005;-79
2023/04/14 13:21:46;;;;;;;4.47;2.30;;;;;;;;;;4951876;28;20200;-79
2023/04/14 13:24:12;;;;;;;4.88;2.30;;;;;;;;;;4951171;28;20047;-79
2023/04/14 13:26:38;;;;;;;5.35;2.42;;;;;;;;;;4953510;29;20130;-79
2023/04/14 13:29:04;;;;;;;6.03;2.30;;;;;;;;;;4961478;28;20046;-79
2023/04/14 13:31:30;;;;;;;11.18;3.22;;;;;;;;;;4971887;28;20074;-79
2023/04/14 13:33:56;;;;;;;5.07;2.83;;;;;;;;;;4970784;28;20049;-79
2023/04/14 13:36:22;;;;;;;5.90;2.80;;;;;;;;;;4954275;28;20112;-79
2023/04/14 13:38:48;;;;;;;6.53;2.80;;;;;;;;;;4953309;28;20423;-79
2023/04/14 13:41:17;;;;;;;8.25;3.17;;;;;;;;;;4952752;28;20059;-77
2023/04/14 13:43:43;;;;;;;5.88;2.50;;;;;;;;;;4955132;28;20051;-79
2023/04/14 13:46:10;;;;;;;5.65;2.40;;;;;;;;;;4972013;28;20061;-79
2023/04/14 13:48:36;;;;;;;5.03;2.30;;;;;;;;;;4954144;28;20051;-79
2023/04/14 13:51:02;;;;;;;8.30;2.67;;;;;;;;;;4947834;28;20046;-80
2023/04/14 13:53:28;;;;;;;5.63;2.40;;;;;;;;;;4953250;28;20054;-80
2023/04/14 13:55:55;;;;;;;5.13;2.58;;;;;;;;;;4952732;28;20054;-79
2023/04/14 13:58:21;;;;;;;6.47;2.70;;;;;;;;;;4947327;28;20145;-78
2023/04/14 14:00:47;;;;;;;4.93;2.45;;;;;;;;;;4952587;28;20046;-77
2023/04/14 14:03:13;;;;;;;4.63;2.30;;;;;;;;;;4972734;28;20055;-81
2023/04/14 14:05:39;;;;;;;5.28;2.40;;;;;;;;;;4964413;28;20035;-76
2023/04/14 14:08:05;;;;;;;4.65;2.30;;;;;;;;;;4968690;28;20055;-77
2023/04/14 14:10:31;;;;;;;6.22;2.45;;;;;;;;;;4974360;28;20050;-77
2023/04/14 14:12:57;;;;;;;5.45;2.30;;;;;;;;;;4962549;28;20069;-77
2023/04/14 14:15:24;;;;;;;4.68;2.15;;;;;;;;;;4967575;28;20042;-75
2023/04/14 14:17:51;;;;;;;6.35;2.60;;;;;;;;;;4957990;28;20106;-74
2023/04/14 14:20:18;;;;;;;4.00;2.42;;;;;;;;;;4952410;28;20055;-76
2023/04/14 14:22:44;;;;;;;3.13;2.20;;;;;;;;;;4975763;28;20047;-80
2023/04/14 14:25:10;;;;;;;5.90;2.50;;;;;;;;;;4972663;28;20046;-80
2023/04/14 14:27:36;;;;;;;9.23;2.70;;;;;;;;;;4959279;28;20085;-78
2023/04/14 14:30:02;;;;;;;4.30;2.20;;;;;;;;;;4975470;28;20070;-77
2023/04/14 14:32:28;;;;;;;6.03;2.70;;;;;;;;;;4955932;28;20059;-78
2023/04/14 14:34:55;;;;;;;4.57;2.60;;;;;;;;;;4964150;28;20039;-78
2023/04/14 14:37:21;;;;;;;6.97;2.67;;;;;;;;;;4975111;28;20054;-76